Time;durP1;ratioP1;P1;durP2;ratioP2;P2;SDS_P1;SDS_P2;PMS_P1;PMS_P2;Temp;Humidity;BMP_temperature;BMP_pressure;BME280_temperature;BME280_humidity;BME280_pressure;Samples;Min_cycle;Max_cycle;Signal;HPM_P1;HPM_P2
2022/06/19 00:01:30;;;;;;;11.45;3.88;;;;;;;24.93;80.62;100413.81;5026639;28;20740;-77
2022/06/19 00:03:56;;;;;;;11.20;4.60;;;;;;;24.88;80.26;100411.72;5022862;28;20063;-75
2022/06/19 00:06:24;;;;;;;12.20;4.00;;;;;;;24.83;80.47;100409.63;5016037;28;20049;-75
2022/06/19 00:08:52;;;;;;;9.93;3.72;;;;;;;24.85;80.72;100404.25;5021960;28;20103;-77
2022/06/19 00:11:21;;;;;;;9.98;4.18;;;;;;;24.82;79.97;100399.59;5020028;28;20055;-76
2022/06/19 00:13:47;;;;;;;10.88;4.22;;;;;;;24.83;80.21;100401.91;5016760;28;20076;-77
2022/06/19 00:16:15;;;;;;;13.45;4.32;;;;;;;24.80;80.53;100393.66;5013684;28;20052;-77
2022/06/19 00:18:42;;;;;;;10.77;3.88;;;;;;;24.76;81.25;100393.88;5015915;28;20053;-77
2022/06/19 00:21:09;;;;;;;8.95;5.20;;;;;;;24.71;81.54;100386.13;5026337;28;20104;-76
2022/06/19 00:23:37;;;;;;;9.65;4.75;;;;;;;24.70;80.84;100380.97;5020842;28;20232;-76
2022/06/19 00:26:04;;;;;;;11.50;4.32;;;;;;;24.66;80.38;100372.72;5021560;28;20135;-77
2022/06/19 00:28:30;;;;;;;8.57;3.95;;;;;;;24.59;80.50;100358.22;5021451;28;20595;-76
2022/06/19 00:30:57;;;;;;;9.95;4.30;;;;;;;24.51;81.38;100348.66;5024914;28;20164;-76
2022/06/19 00:33:23;;;;;;;10.02;3.97;;;;;;;24.39;81.67;100347.78;5022533;28;20041;-75
2022/06/19 00:35:50;;;;;;;11.32;3.72;;;;;;;24.32;82.36;100348.22;5016158;28;20099;-77
2022/06/19 00:38:16;;;;;;;7.80;3.88;;;;;;;24.24;81.75;100335.81;5023258;28;20048;-76
2022/06/19 00:40:43;;;;;;;10.95;4.13;;;;;;;24.25;81.69;100334.53;5024997;28;20083;-78
2022/06/19 00:43:09;;;;;;;8.32;3.60;;;;;;;24.25;81.29;100330.94;5016840;28;20836;-77
2022/06/19 00:45:50;;;;;;;8.95;3.90;;;;;;;24.18;81.60;100325.72;5026529;28;20044;-77
2022/06/19 00:48:31;;;;;;;8.48;3.63;;;;;;;24.12;82.21;100310.75;5027752;28;20045;-74
2022/06/19 00:51:02;;;;;;;9.75;3.72;;;;;;;24.05;82.27;100302.72;5024689;28;20884;-77
2022/06/19 00:53:35;;;;;;;8.00;3.60;;;;;;;23.99;82.50;100305.50;5015816;28;20884;-77
2022/06/19 00:56:03;;;;;;;10.60;3.72;;;;;;;23.94;82.11;100288.50;5025217;28;20049;-77
2022/06/19 00:58:37;;;;;;;13.52;4.78;;;;;;;23.92;82.90;100288.19;5020782;28;20727;-78
2022/06/19 01:01:11;;;;;;;9.30;2.95;;;;;;;23.80;82.93;100276.03;5030697;28;20056;-76
2022/06/19 01:03:48;;;;;;;8.48;3.72;;;;;;;23.75;83.23;100276.72;5028109;28;20053;-78
2022/06/19 01:06:14;;;;;;;6.80;3.58;;;;;;;23.75;82.27;100271.06;5027757;28;20049;-77
2022/06/19 01:08:41;;;;;;;7.05;3.28;;;;;;;23.62;83.92;100267.84;5030050;28;20599;-75
2022/06/19 01:11:08;;;;;;;11.27;3.42;;;;;;;23.58;83.20;100261.66;5022075;28;20045;-76
2022/06/19 01:13:36;;;;;;;11.50;3.85;;;;;;;23.57;83.08;100270.63;5019474;28;20085;-78
2022/06/19 01:16:05;;;;;;;11.15;4.00;;;;;;;23.51;82.65;100269.78;5020906;28;20111;-74
2022/06/19 01:18:37;;;;;;;10.85;3.85;;;;;;;23.44;83.74;100256.88;5041079;28;20045;-73
2022/06/19 01:21:16;;;;;;;7.60;3.50;;;;;;;23.36;83.54;100252.94;5047624;28;20139;-76
2022/06/19 01:24:03;;;;;;;12.02;3.80;;;;;;;23.30;84.94;100251.31;5042122;28;20056;-73
2022/06/19 01:26:37;;;;;;;8.88;3.67;;;;;;;23.27;84.04;100255.13;5029138;28;20079;-74
2022/06/19 01:29:04;;;;;;;10.68;3.50;;;;;;;23.20;84.52;100253.47;5042394;28;20779;-74
2022/06/19 01:31:42;;;;;;;9.70;4.10;;;;;;;23.17;85.80;100264.97;5045733;28;20144;-76
2022/06/19 01:34:29;;;;;;;8.55;3.97;;;;;;;23.14;84.80;100261.09;5042095;28;20136;-74
2022/06/19 01:37:10;;;;;;;8.65;3.85;;;;;;;23.13;85.64;100255.94;5049694;28;20128;-74
2022/06/19 01:39:42;;;;;;;14.48;3.80;;;;;;;23.07;84.13;100258.69;5042734;28;20037;-75
2022/06/19 01:42:11;;;;;;;10.50;3.60;;;;;;;23.01;84.96;100263.50;5045400;28;20056;-73
2022/06/19 01:44:39;;;;;;;8.82;3.58;;;;;;;22.98;84.73;100261.66;5049396;28;20059;-74
2022/06/19 01:47:06;;;;;;;10.65;3.97;;;;;;;22.94;84.49;100258.28;5047719;28;20080;-74
2022/06/19 01:49:36;;;;;;;7.50;3.75;;;;;;;22.90;85.38;100266.16;5044685;28;20106;-76
2022/06/19 01:52:05;;;;;;;4.38;2.85;;;;;;;22.88;85.64;100251.00;5065652;28;20464;-76
2022/06/19 01:54:37;;;;;;;9.77;3.80;;;;;;;22.85;85.59;100237.88;5040658;28;20060;-75
2022/06/19 01:57:07;;;;;;;9.85;3.63;;;;;;;22.63;88.85;100256.06;5044184;28;20051;-74
2022/06/19 01:59:36;;;;;;;8.48;4.07;;;;;;;22.59;88.42;100249.06;5043315;28;20772;-75
2022/06/19 02:02:05;;;;;;;7.40;3.25;;;;;;;22.57;87.48;100257.22;5040488;28;20158;-74
2022/06/19 02:04:32;;;;;;;11.73;4.15;;;;;;;22.46;88.10;100254.22;5046754;28;20076;-77
2022/06/19 02:07:02;;;;;;;7.10;3.63;;;;;;;22.47;87.83;100255.75;5044769;28;20071;-74
2022/06/19 02:09:30;;;;;;;8.43;3.78;;;;;;;22.42;88.70;100253.66;5043827;28;20656;-74
2022/06/19 02:11:57;;;;;;;9.35;3.78;;;;;;;22.45;86.95;100266.75;5047395;28;20498;-74
2022/06/19 02:14:24;;;;;;;12.40;3.10;;;;;;;22.42;87.50;100273.38;5045929;28;20053;-73
2022/06/19 02:16:51;;;;;;;8.80;3.40;;;;;;;22.38;88.06;100270.75;5048197;28;20156;-74
2022/06/19 02:19:19;;;;;;;9.18;3.60;;;;;;;22.39;88.02;100272.31;5043550;28;20052;-75
2022/06/19 02:21:54;;;;;;;7.65;3.10;;;;;;;22.36;86.80;100252.78;5045654;28;20049;-75
2022/06/19 02:24:24;;;;;;;9.18;3.28;;;;;;;22.33;86.42;100250.94;5048772;28;20055;-75
2022/06/19 02:26:51;;;;;;;8.65;3.28;;;;;;;22.32;86.99;100260.66;5046957;28;20048;-73
2022/06/19 02:29:19;;;;;;;8.82;3.63;;;;;;;22.32;87.10;100255.81;5048451;28;20129;-73
2022/06/19 02:31:52;;;;;;;9.63;3.53;;;;;;;22.30;86.94;100246.28;5045333;28;20124;-74
2022/06/19 02:34:37;;;;;;;9.15;3.45;;;;;;;22.23;86.24;100226.94;5045221;28;20138;-74
2022/06/19 02:37:11;;;;;;;9.90;3.30;;;;;;;22.09;87.03;100231.34;5040575;28;20075;-73
2022/06/19 02:39:44;;;;;;;8.68;3.28;;;;;;;21.98;87.19;100231.16;5043190;28;20068;-74
2022/06/19 02:42:19;;;;;;;10.23;3.30;;;;;;;21.89;87.92;100236.13;5041632;28;20832;-73
2022/06/19 02:45:01;;;;;;;8.60;3.20;;;;;;;21.84;87.59;100234.00;5041559;28;20076;-73
2022/06/19 02:47:32;;;;;;;5.68;2.88;;;;;;;21.83;86.74;100238.03;5041980;28;20510;-74
2022/06/19 02:49:58;;;;;;;7.80;2.92;;;;;;;21.77;87.42;100246.41;5037553;28;20139;-73
2022/06/19 02:52:25;;;;;;;8.45;2.95;;;;;;;21.73;87.81;100271.16;5045273;28;20046;-76
2022/06/19 02:54:52;;;;;;;7.72;2.80;;;;;;;21.69;87.15;100314.81;5042018;28;20498;-73
2022/06/19 02:57:19;;;;;;;11.63;2.72;;;;;;;21.68;86.69;100313.25;5045565;28;20057;-73
2022/06/19 02:59:46;;;;;;;9.25;2.92;;;;;;;21.60;86.25;100269.88;5042664;28;20095;-73
2022/06/19 03:02:13;;;;;;;7.45;2.13;;;;;;;21.49;86.62;100238.66;5042493;28;20421;-73
2022/06/19 03:04:59;;;;;;;10.80;2.75;;;;;;;21.39;86.90;100240.03;5040819;28;20056;-76
2022/06/19 03:07:26;;;;;;;6.00;2.67;;;;;;;21.27;86.93;100258.72;5036355;28;20513;-74
2022/06/19 03:09:54;;;;;;;10.32;2.70;;;;;;;21.21;86.80;100282.38;5047310;28;20136;-77
2022/06/19 03:12:20;;;;;;;9.85;2.85;;;;;;;21.27;86.60;100272.81;5043868;28;20140;-74
2022/06/19 03:14:47;;;;;;;6.05;2.33;;;;;;;21.32;86.34;100244.00;5039974;28;20055;-75
2022/06/19 03:17:16;;;;;;;7.95;2.88;;;;;;;21.26;87.23;100268.41;5044739;28;20049;-76
2022/06/19 03:19:44;;;;;;;10.23;2.72;;;;;;;21.22;86.20;100273.44;5038029;28;20041;-75
2022/06/19 03:22:11;;;;;;;7.32;2.60;;;;;;;21.19;85.88;100262.41;5043869;28;20127;-74
2022/06/19 03:24:39;;;;;;;6.78;2.75;;;;;;;21.12;85.47;100243.84;5036063;28;20928;-74
2022/06/19 03:27:10;;;;;;;7.63;2.85;;;;;;;21.03;85.60;100272.03;5042281;28;20059;-73
2022/06/19 03:29:37;;;;;;;8.18;2.58;;;;;;;21.07;84.29;100289.50;5042039;28;20653;-73
2022/06/19 03:32:04;;;;;;;11.52;2.60;;;;;;;21.02;84.47;100321.09;5044797;28;20072;-74
2022/06/19 03:34:31;;;;;;;7.05;2.60;;;;;;;20.96;82.98;100353.94;5045800;28;20072;-74
2022/06/19 03:36:58;;;;;;;14.10;2.70;;;;;;;20.94;82.72;100350.06;5038008;28;20164;-74
2022/06/19 03:39:24;;;;;;;9.80;2.42;;;;;;;20.85;82.50;100344.47;5045446;28;20075;-74
2022/06/19 03:41:51;;;;;;;8.88;2.58;;;;;;;20.77;81.88;100371.34;5038746;28;20456;-75
2022/06/19 03:44:17;;;;;;;10.35;2.47;;;;;;;20.71;80.77;100350.75;5043331;28;20416;-73
2022/06/19 03:46:44;;;;;;;7.53;2.30;;;;;;;20.56;80.70;100358.31;5042720;28;20045;-76
2022/06/19 03:49:11;;;;;;;8.52;2.75;;;;;;;20.53;80.39;100362.06;5036491;28;20575;-74
2022/06/19 03:51:37;;;;;;;11.32;2.30;;;;;;;20.54;79.70;100355.97;5042668;28;20045;-73
2022/06/19 03:54:07;;;;;;;8.90;2.42;;;;;;;20.48;79.29;100365.53;5033272;28;20135;-74
2022/06/19 03:56:35;;;;;;;11.95;2.33;;;;;;;20.33;77.56;100388.69;5035546;28;20145;-75
2022/06/19 03:59:09;;;;;;;6.95;2.15;;;;;;;20.26;77.36;100383.34;5039702;28;20076;-73
2022/06/19 04:01:39;;;;;;;15.02;2.20;;;;;;;20.33;77.18;100365.41;5040739;28;20053;-74
2022/06/19 04:04:07;;;;;;;11.93;2.65;;;;;;;20.25;77.35;100364.19;5045842;28;20136;-73
2022/06/19 04:06:36;;;;;;;11.52;2.78;;;;;;;20.07;77.90;100370.59;5043681;28;20498;-74
2022/06/19 04:09:06;;;;;;;14.15;3.17;;;;;;;20.03;78.21;100400.88;5041938;28;20051;-75
2022/06/19 04:11:33;;;;;;;14.57;2.40;;;;;;;19.92;77.65;100430.66;5042437;28;20059;-76
2022/06/19 04:14:00;;;;;;;12.35;2.75;;;;;;;19.93;76.66;100421.78;5038699;28;20183;-74
2022/06/19 04:16:29;;;;;;;15.55;2.55;;;;;;;19.92;75.46;100437.03;5043633;28;20053;-74
2022/06/19 04:18:58;;;;;;;11.43;2.28;;;;;;;19.88;74.51;100439.22;5047249;28;20085;-73
2022/06/19 04:21:27;;;;;;;13.48;2.55;;;;;;;19.71;74.55;100426.72;5050828;28;20048;-74
2022/06/19 04:23:57;;;;;;;14.70;3.17;;;;;;;19.65;73.91;100442.63;5041776;28;20128;-74
2022/06/19 04:26:26;;;;;;;13.80;2.50;;;;;;;19.53;72.43;100457.59;5048509;28;20049;-75
2022/06/19 04:28:52;;;;;;;17.70;2.65;;;;;;;19.59;72.33;100460.56;5048507;28;20493;-74
2022/06/19 04:31:19;;;;;;;17.10;2.85;;;;;;;19.48;71.80;100485.47;5045462;28;20137;-73
2022/06/19 04:33:46;;;;;;;13.75;2.42;;;;;;;19.45;72.36;100506.84;5045604;28;20089;-73
2022/06/19 04:36:16;;;;;;;13.52;2.63;;;;;;;19.44;71.96;100474.38;5045712;28;20417;-73
2022/06/19 04:38:44;;;;;;;14.45;2.75;;;;;;;19.33;71.28;100437.59;5045111;28;20081;-73
2022/06/19 04:41:17;;;;;;;12.68;2.38;;;;;;;19.34;71.20;100439.13;5043658;28;20562;-74
2022/06/19 04:43:43;;;;;;;17.98;2.65;;;;;;;19.26;71.04;100467.94;5043846;28;20081;-73
2022/06/19 04:46:10;;;;;;;12.52;2.63;;;;;;;19.27;70.88;100470.28;5044990;28;20049;-75
2022/06/19 04:48:38;;;;;;;19.23;2.85;;;;;;;19.24;70.12;100478.81;5041000;28;20045;-74
2022/06/19 04:51:05;;;;;;;16.00;2.63;;;;;;;19.29;69.46;100476.22;5049114;28;20053;-74
2022/06/19 04:53:37;;;;;;;11.77;2.25;;;;;;;19.37;69.62;100451.47;5040261;28;20048;-77
2022/06/19 04:56:08;;;;;;;14.88;2.10;;;;;;;19.38;69.03;100445.41;5047312;28;20231;-74
2022/06/19 04:58:35;;;;;;;10.77;2.70;;;;;;;19.32;67.07;100424.81;5045373;28;20126;-74
2022/06/19 05:01:08;;;;;;;17.83;3.00;;;;;;;19.30;67.46;100441.31;5036974;28;20160;-77
2022/06/19 05:03:35;;;;;;;15.73;2.70;;;;;;;19.33;67.25;100439.59;5052058;28;20080;-74
2022/06/19 05:06:03;;;;;;;12.93;2.10;;;;;;;19.30;66.37;100444.13;5041714;28;20067;-74
2022/06/19 05:08:31;;;;;;;12.73;2.47;;;;;;;19.30;65.91;100449.72;5049206;28;20053;-74
2022/06/19 05:10:57;;;;;;;11.23;2.97;;;;;;;19.34;65.87;100441.94;5041092;28;20048;-74
2022/06/19 05:13:25;;;;;;;17.05;2.65;;;;;;;19.31;64.81;100448.47;5043438;28;20053;-75
2022/06/19 05:16:03;;;;;;;16.58;2.38;;;;;;;19.27;64.83;100424.63;5050597;28;20551;-74
2022/06/19 05:18:30;;;;;;;18.83;2.97;;;;;;;19.30;65.38;100427.28;5043718;28;20073;-72
2022/06/19 05:21:01;;;;;;;11.55;2.40;;;;;;;19.33;65.58;100428.38;5050526;28;20059;-75
2022/06/19 05:23:28;;;;;;;17.13;2.75;;;;;;;19.46;65.94;100471.13;5041439;28;20052;-73
2022/06/19 05:26:09;;;;;;;16.80;3.05;;;;;;;19.51;64.95;100510.56;5035708;28;20158;-74
2022/06/19 05:28:36;;;;;;;14.15;2.55;;;;;;;19.62;64.26;100519.34;5052442;28;20531;-72
2022/06/19 05:31:04;;;;;;;15.40;2.65;;;;;;;19.65;63.89;100500.81;5048490;28;20061;-76
2022/06/19 05:33:32;;;;;;;18.65;2.78;;;;;;;19.74;63.16;100495.19;5056975;28;20152;-74
2022/06/19 05:35:59;;;;;;;10.95;2.15;;;;;;;19.78;62.87;100485.38;5036178;28;20136;-72
2022/06/19 05:38:26;;;;;;;15.20;2.63;;;;;;;19.82;62.22;100500.06;5053882;28;20139;-73
2022/06/19 05:40:55;;;;;;;13.50;2.40;;;;;;;19.88;61.42;100491.81;5044664;28;20132;-72
2022/06/19 05:43:23;;;;;;;11.77;2.08;;;;;;;19.81;61.22;100508.97;5041200;28;20114;-72
2022/06/19 05:45:55;;;;;;;15.02;3.28;;;;;;;19.78;61.13;100496.59;5043307;28;20144;-73
2022/06/19 05:48:23;;;;;;;15.13;2.95;;;;;;;19.86;61.44;100410.06;5045719;28;20480;-72
2022/06/19 05:51:21;;;;;;;12.95;2.25;;;;;;;19.88;61.27;100413.19;5030944;28;20231;-73
2022/06/19 05:53:50;;;;;;;14.25;2.00;;;;;;;19.88;61.67;100456.06;5051128;28;20045;-74
2022/06/19 05:56:18;;;;;;;13.25;2.45;;;;;;;19.90;61.40;100405.84;5048158;28;20083;-73
2022/06/19 05:58:44;;;;;;;14.07;2.22;;;;;;;19.83;61.26;100394.94;5044204;28;20055;-71
2022/06/19 06:01:13;;;;;;;12.65;2.45;;;;;;;19.87;62.04;100394.75;5039749;28;20061;-75
2022/06/19 06:03:41;;;;;;;15.27;2.63;;;;;;;19.88;61.89;100385.13;5040209;28;20068;-73
2022/06/19 06:06:14;;;;;;;18.85;2.60;;;;;;;19.88;61.72;100374.66;5045921;28;20052;-73
2022/06/19 06:08:41;;;;;;;19.65;2.50;;;;;;;19.91;62.28;100358.91;5043025;28;20132;-74
2022/06/19 06:11:08;;;;;;;15.98;2.80;;;;;;;19.84;62.46;100345.16;5048061;28;20053;-74
2022/06/19 06:13:35;;;;;;;20.27;3.25;;;;;;;19.88;62.52;100348.63;5049298;28;20044;-74
2022/06/19 06:16:02;;;;;;;13.43;2.63;;;;;;;19.89;62.61;100348.16;5043936;28;20114;-73
2022/06/19 06:18:29;;;;;;;15.88;3.38;;;;;;;19.90;62.85;100348.91;5051934;28;20091;-75
2022/06/19 06:20:55;;;;;;;21.95;2.72;;;;;;;19.93;63.14;100343.16;5047392;28;20917;-74
2022/06/19 06:23:23;;;;;;;18.98;3.20;;;;;;;19.99;63.20;100355.31;5043975;28;20048;-75
2022/06/19 06:26:09;;;;;;;17.58;2.88;;;;;;;20.01;63.28;100375.25;5038408;28;20160;-74
2022/06/19 06:28:37;;;;;;;14.57;3.00;;;;;;;20.09;63.18;100367.31;5047898;28;20050;-74
2022/06/19 06:31:04;;;;;;;15.95;3.05;;;;;;;20.12;63.16;100355.16;5042653;28;20128;-74
2022/06/19 06:33:31;;;;;;;13.48;2.40;;;;;;;20.20;63.81;100357.19;5049942;28;20048;-76
2022/06/19 06:35:59;;;;;;;15.95;2.80;;;;;;;20.25;62.95;100341.72;5046248;28;20055;-75
2022/06/19 06:38:26;;;;;;;12.02;2.13;;;;;;;20.32;63.08;100339.34;5046642;28;20045;-76
2022/06/19 06:40:53;;;;;;;16.80;2.65;;;;;;;20.47;63.21;100344.28;5046951;28;20114;-75
2022/06/19 06:43:21;;;;;;;15.13;2.70;;;;;;;20.59;63.02;100363.78;5044980;28;20405;-73
2022/06/19 06:45:48;;;;;;;19.77;3.70;;;;;;;20.63;62.70;100383.28;5049781;28;20072;-76
2022/06/19 06:48:16;;;;;;;18.52;3.10;;;;;;;20.60;62.87;100390.63;5039009;28;20055;-74
2022/06/19 06:50:43;;;;;;;17.35;3.15;;;;;;;20.61;63.15;100385.81;5045900;28;20069;-73
2022/06/19 06:53:10;;;;;;;15.07;2.50;;;;;;;20.66;63.52;100387.97;5038318;28;20546;-75
2022/06/19 06:55:42;;;;;;;16.90;3.10;;;;;;;20.66;63.10;100382.34;5048636;28;20147;-74
2022/06/19 06:58:09;;;;;;;15.73;3.17;;;;;;;20.65;63.19;100398.41;5032397;28;20679;-75
2022/06/19 07:00:37;;;;;;;17.13;2.92;;;;;;;20.65;63.41;100406.09;5043385;28;20505;-74
2022/06/19 07:03:04;;;;;;;17.85;2.88;;;;;;;20.68;63.31;100414.34;5041160;28;20049;-74
2022/06/19 07:05:31;;;;;;;19.90;3.30;;;;;;;20.74;63.02;100429.31;5038454;28;20045;-74
2022/06/19 07:07:59;;;;;;;20.52;3.28;;;;;;;20.77;62.80;100430.38;5058082;28;20139;-74
2022/06/19 07:10:27;;;;;;;21.15;4.38;;;;;;;20.86;63.16;100414.28;5039430;28;20047;-75
2022/06/19 07:12:54;;;;;;;14.70;2.50;;;;;;;20.97;62.78;100410.97;5040839;28;20073;-75
2022/06/19 07:15:21;;;;;;;20.25;3.65;;;;;;;20.92;62.38;100434.09;5039395;28;20055;-75
2022/06/19 07:17:48;;;;;;;17.40;2.97;;;;;;;20.98;62.50;100461.13;5043277;28;20568;-74
2022/06/19 07:20:14;;;;;;;15.38;2.85;;;;;;;21.02;63.01;100480.66;5045269;28;20050;-77
2022/06/19 07:22:41;;;;;;;20.35;3.22;;;;;;;21.26;62.23;100515.28;5049239;28;20128;-76
2022/06/19 07:25:13;;;;;;;13.27;3.85;;;;;;;21.44;61.60;100527.22;5052793;28;20688;-74
2022/06/19 07:27:40;;;;;;;14.30;2.60;;;;;;;21.50;60.97;100521.72;5046578;28;20054;-74
2022/06/19 07:30:07;;;;;;;19.15;2.78;;;;;;;21.62;60.91;100548.88;5046690;28;20041;-73
2022/06/19 07:32:34;;;;;;;15.82;2.92;;;;;;;21.79;60.40;100593.09;5046035;28;20046;-73
2022/06/19 07:35:00;;;;;;;14.68;2.85;;;;;;;21.99;59.65;100623.50;5038617;28;20100;-73
2022/06/19 07:37:27;;;;;;;20.00;3.08;;;;;;;22.06;59.88;100609.06;5037717;28;20045;-72
2022/06/19 07:39:55;;;;;;;17.88;3.20;;;;;;;22.18;59.41;100630.59;5042614;28;20136;-72
2022/06/19 07:42:21;;;;;;;16.13;3.17;;;;;;;22.30;59.14;100666.22;5042113;28;20528;-72
2022/06/19 07:44:48;;;;;;;14.68;3.53;;;;;;;22.39;58.58;100691.53;5042403;28;20038;-71
2022/06/19 07:50:09;;;;;;;18.63;3.70;;;;;;;22.19;58.90;100717.50;5045735;28;20055;-72
2022/06/19 07:52:37;;;;;;;15.98;2.72;;;;;;;22.22;58.88;100710.91;5037501;28;20079;-72
2022/06/19 07:55:04;;;;;;;19.63;3.72;;;;;;;22.08;58.14;100713.63;5043850;28;20135;-71
2022/06/19 07:57:31;;;;;;;14.57;2.10;;;;;;;22.22;58.19;100690.38;5045112;28;20540;-71
2022/06/19 07:59:58;;;;;;;18.30;2.78;;;;;;;22.22;57.31;100663.00;5040639;28;20042;-70
2022/06/19 08:02:24;;;;;;;17.45;3.30;;;;;;;22.32;57.27;100675.78;5041868;28;20092;-71
2022/06/19 08:04:51;;;;;;;19.50;2.85;;;;;;;22.44;57.29;100696.50;5043291;28;20103;-71
2022/06/19 08:07:19;;;;;;;21.70;3.40;;;;;;;22.51;56.68;100696.22;5046175;28;20111;-72
2022/06/19 08:09:46;;;;;;;11.55;2.95;;;;;;;22.47;56.33;100681.47;5039687;28;20049;-72
2022/06/19 08:12:13;;;;;;;18.20;3.95;;;;;;;22.58;55.87;100665.59;5039612;28;20041;-71
2022/06/19 08:14:39;;;;;;;11.90;2.67;;;;;;;22.71;55.26;100668.16;5045472;28;20140;-71
2022/06/19 08:17:06;;;;;;;20.85;3.30;;;;;;;22.78;55.01;100696.78;5043458;28;20040;-72
2022/06/19 08:19:32;;;;;;;14.77;3.05;;;;;;;22.87;55.03;100692.34;5039443;28;20060;-71
2022/06/19 08:21:59;;;;;;;13.05;2.70;;;;;;;22.96;54.95;100678.94;5041796;28;20037;-71
2022/06/19 08:24:26;;;;;;;15.57;2.63;;;;;;;22.62;54.59;100683.09;5045567;28;20055;-70
2022/06/19 08:27:02;;;;;;;16.67;2.92;;;;;;;22.72;54.95;100670.50;5045459;28;20047;-70
2022/06/19 08:29:29;;;;;;;14.35;3.38;;;;;;;22.84;55.32;100688.44;5043926;28;20049;-69
2022/06/19 08:31:55;;;;;;;15.80;2.88;;;;;;;23.09;53.95;100681.50;5046926;28;20083;-70
2022/06/19 08:34:22;;;;;;;12.80;2.67;;;;;;;22.96;54.43;100673.31;5044482;28;20053;-72
2022/06/19 08:36:49;;;;;;;17.67;3.35;;;;;;;22.73;54.66;100663.63;5044099;28;20128;-74
2022/06/19 08:39:17;;;;;;;15.75;2.90;;;;;;;22.98;53.56;100655.91;5041886;28;20072;-75
2022/06/19 08:42:05;;;;;;;17.67;3.03;;;;;;;23.17;52.87;100679.84;5041885;28;20110;-74
2022/06/19 08:44:57;;;;;;;11.32;2.45;;;;;;;23.33;52.87;100699.19;5042921;28;20476;-74
2022/06/19 08:47:41;;;;;;;16.50;2.35;;;;;;;22.83;53.65;100709.47;5046888;28;20045;-76
2022/06/19 08:50:11;;;;;;;8.05;1.40;;;;;;;22.64;53.40;100713.66;5044108;28;20496;-76
2022/06/19 08:53:16;;;;;;;16.80;2.80;;;;;;;22.66;54.53;100717.56;5041535;28;20107;-76
2022/06/19 08:56:04;;;;;;;14.15;2.60;;;;;;;22.76;54.06;100721.09;5032074;28;20131;-75
2022/06/19 08:58:40;;;;;;;14.63;2.72;;;;;;;22.83;53.94;100715.09;5044927;28;20144;-72
2022/06/19 09:01:27;;;;;;;18.15;2.90;;;;;;;22.96;53.55;100701.53;5042063;28;20071;-73
2022/06/19 09:07:33;;;;;;;14.70;2.58;;;;;;;23.42;51.67;100716.81;5039311;28;20056;-72
2022/06/19 09:10:17;;;;;;;10.73;2.10;;;;;;;23.58;51.04;100698.59;5043678;28;20081;-75
2022/06/19 09:12:59;;;;;;;15.43;3.17;;;;;;;23.73;50.69;100676.78;5041051;28;20045;-72
2022/06/19 09:15:57;;;;;;;16.42;2.95;;;;;;;23.66;50.62;100640.47;5041204;28;20160;-72
2022/06/19 09:18:42;;;;;;;12.77;2.50;;;;;;;23.86;51.17;100663.91;5034232;28;20045;-73
2022/06/19 09:21:14;;;;;;;13.57;2.83;;;;;;;24.10;50.04;100655.31;5041452;28;20065;-73
2022/06/19 09:24:05;;;;;;;17.35;2.97;;;;;;;24.35;49.89;100627.16;5043472;28;20045;-72
2022/06/19 09:26:42;;;;;;;13.45;2.60;;;;;;;24.59;48.91;100622.06;5047239;28;20071;-72
2022/06/19 09:29:22;;;;;;;14.77;2.90;;;;;;;24.59;47.73;100621.28;5048224;28;20110;-74
2022/06/19 09:31:58;;;;;;;11.00;2.70;;;;;;;24.65;48.48;100608.03;5039028;28;20391;-73
2022/06/19 09:35:05;;;;;;;15.65;2.67;;;;;;;24.82;48.30;100611.81;5043111;28;20087;-73
2022/06/19 09:37:58;;;;;;;15.48;2.45;;;;;;;24.88;47.87;100599.28;5046346;28;20147;-73
2022/06/19 09:40:34;;;;;;;14.07;2.70;;;;;;;24.95;48.03;100610.19;5046771;28;20131;-73
2022/06/19 09:43:12;;;;;;;11.45;2.58;;;;;;;25.04;48.04;100618.50;5037156;28;20461;-73
2022/06/19 09:45:46;;;;;;;15.38;3.05;;;;;;;24.98;47.72;100619.72;5038292;28;20132;-75
2022/06/19 09:48:25;;;;;;;18.25;2.97;;;;;;;24.74;48.22;100630.50;5027981;28;20060;-75
2022/06/19 09:50:59;;;;;;;17.90;3.10;;;;;;;24.77;49.14;100607.66;5046023;28;20533;-74
2022/06/19 09:53:36;;;;;;;12.25;2.88;;;;;;;24.86;48.69;100578.41;5037749;28;20500;-74
2022/06/19 09:56:31;;;;;;;20.05;3.05;;;;;;;24.80;49.14;100566.25;5045358;28;20703;-72
2022/06/19 09:59:09;;;;;;;16.77;3.58;;;;;;;24.75;49.49;100545.13;5049356;28;20675;-72
2022/06/19 10:01:36;;;;;;;14.00;2.95;;;;;;;24.66;49.51;100527.53;5042536;28;20056;-73
2022/06/19 10:04:18;;;;;;;14.43;3.10;;;;;;;24.56;49.99;100529.72;5046558;28;20398;-71
2022/06/19 10:06:56;;;;;;;14.00;3.53;;;;;;;24.45;50.07;100509.78;5071226;28;20452;-71
2022/06/19 10:09:47;;;;;;;16.00;2.75;;;;;;;24.41;50.53;100483.00;5032272;28;20700;-75
2022/06/19 10:12:28;;;;;;;14.50;3.25;;;;;;;24.34;51.18;100487.06;5043658;28;20045;-73
2022/06/19 10:15:02;;;;;;;13.40;2.35;;;;;;;24.29;51.51;100475.66;5046776;28;20062;-73
2022/06/19 10:17:41;;;;;;;21.52;3.45;;;;;;;24.22;51.42;100512.84;5044578;28;20171;-73
2022/06/19 10:20:16;;;;;;;14.52;2.90;;;;;;;24.08;52.06;100559.72;5038626;28;20155;-72
2022/06/19 10:23:16;;;;;;;19.27;2.80;;;;;;;23.97;53.08;100576.53;5041035;28;20056;-74
2022/06/19 10:25:52;;;;;;;17.58;3.50;;;;;;;24.11;52.47;100572.88;5044181;28;20052;-72
2022/06/19 10:28:31;;;;;;;16.42;3.17;;;;;;;24.17;52.21;100592.72;5046559;28;20053;-72
2022/06/19 10:31:36;;;;;;;11.77;2.95;;;;;;;24.15;52.95;100584.72;5031747;28;20045;-73
2022/06/19 10:34:18;;;;;;;18.57;4.30;;;;;;;24.32;52.34;100582.91;4970278;28;20754;-74
2022/06/19 10:37:02;;;;;;;18.48;3.35;;;;;;;24.40;52.35;100575.53;5016986;28;20307;-73
2022/06/19 10:40:07;;;;;;;14.57;3.58;;;;;;;24.32;51.17;100509.38;5010754;28;20049;-73
2022/06/19 10:42:53;;;;;;;18.43;3.37;;;;;;;24.28;52.72;100534.28;5011014;28;20159;-73
2022/06/19 10:45:48;;;;;;;16.13;3.00;;;;;;;24.20;53.65;100572.72;5014062;28;20063;-73
2022/06/19 10:48:40;;;;;;;16.80;3.00;;;;;;;24.29;54.27;100527.34;5010317;28;20131;-74
2022/06/19 10:51:26;;;;;;;12.93;3.03;;;;;;;24.39;53.28;100511.78;5013453;28;20049;-73
2022/06/19 10:54:22;;;;;;;14.15;2.75;;;;;;;24.41;53.43;100505.63;5011085;28;20186;-74
2022/06/19 10:56:55;;;;;;;13.73;2.88;;;;;;;24.49;52.28;100476.41;5011990;28;20079;-73
2022/06/19 10:59:21;;;;;;;11.05;2.72;;;;;;;24.56;52.34;100469.53;5010956;28;20045;-73
2022/06/19 11:05:07;;;;;;;14.00;3.03;;;;;;;25.02;50.97;100490.84;5012281;28;20057;-73
2022/06/19 11:07:33;;;;;;;17.25;2.88;;;;;;;25.30;50.52;100467.63;5003232;28;20048;-73
2022/06/19 11:10:18;;;;;;;15.13;2.97;;;;;;;25.26;49.63;100453.69;5008709;28;20057;-73
2022/06/19 11:12:49;;;;;;;17.77;3.90;;;;;;;25.61;49.63;100474.03;5008204;28;20053;-71
2022/06/19 11:15:25;;;;;;;12.80;2.80;;;;;;;25.75;49.49;100483.66;5014969;28;20147;-72
2022/06/19 11:18:43;;;;;;;12.77;2.83;;;;;;;25.80;48.90;100474.38;5015954;28;20087;-72
2022/06/19 11:21:17;;;;;;;17.08;3.88;;;;;;;25.94;48.66;100481.94;4963061;28;20053;-73
2022/06/19 11:23:47;;;;;;;15.38;2.97;;;;;;;26.04;48.09;100472.75;4964437;28;20521;-72
2022/06/19 11:26:26;;;;;;;12.55;3.35;;;;;;;26.27;47.36;100477.22;4977486;28;20077;-77
2022/06/19 11:28:52;;;;;;;18.80;3.60;;;;;;;26.41;47.81;100479.06;4969765;28;20050;-73
2022/06/19 11:31:31;;;;;;;18.48;3.05;;;;;;;26.45;47.67;100473.91;4950466;28;20547;-76
2022/06/19 11:37:17;;;;;;;11.95;3.35;;;;;;;26.29;47.04;100511.50;4973143;28;20056;-77
2022/06/19 11:39:49;;;;;;;14.18;3.28;;;;;;;26.39;47.25;100526.25;4952960;28;20057;-76
2022/06/19 11:42:33;;;;;;;10.45;2.95;;;;;;;26.65;46.60;100530.47;4961453;28;20056;-75
2022/06/19 11:45:28;;;;;;;21.38;4.57;;;;;;;26.81;46.47;100534.63;4964040;28;20152;-74
2022/06/19 11:47:54;;;;;;;17.92;4.28;;;;;;;27.06;46.65;100533.63;4959809;28;20097;-74
2022/06/19 11:50:25;;;;;;;12.70;2.53;;;;;;;27.06;46.55;100533.63;4951911;28;20103;-74
2022/06/19 11:53:06;;;;;;;14.30;3.33;;;;;;;27.09;46.67;100544.72;5019215;28;20056;-75
2022/06/19 11:55:45;;;;;;;13.80;3.13;;;;;;;27.34;46.14;100552.25;5019562;28;20060;-72